createdAt,value
2019-04-01T00:03:24.104Z,10.70
2019-04-01T00:13:28.951Z,15.33
2019-04-01T00:23:34.745Z,11.73
2019-04-01T00:33:39.435Z,17.27
2019-04-01T00:44:00.984Z,8.70
2019-04-01T00:54:05.652Z,8.00
2019-04-01T01:04:11.331Z,9.60
2019-04-01T01:14:17.111Z,9.10
2019-04-01T01:24:21.783Z,13.63
2019-04-01T01:34:26.421Z,9.60
2019-04-01T01:44:31.078Z,11.60
2019-04-01T01:54:35.782Z,9.33
2019-04-01T02:04:40.481Z,9.10
2019-04-01T02:14:46.067Z,6.83
2019-04-01T02:24:50.729Z,7.27
2019-04-01T02:34:55.371Z,12.40
2019-04-01T02:45:00.558Z,7.57
2019-04-01T02:55:06.879Z,10.13
2019-04-01T03:05:11.862Z,10.27
2019-04-01T03:15:16.500Z,9.27
2019-04-01T03:25:21.136Z,5.53
2019-04-01T03:35:25.778Z,10.40
2019-04-01T03:45:30.450Z,9.10
2019-04-01T03:55:35.449Z,8.80
2019-04-01T04:05:40.020Z,5.37
2019-04-01T04:15:44.680Z,8.57
2019-04-01T04:25:50.498Z,10.17
2019-04-01T04:35:55.174Z,6.80
2019-04-01T04:45:59.850Z,9.23
2019-04-01T04:56:04.470Z,12.43
2019-04-01T05:06:09.388Z,11.47
2019-04-01T05:16:14.154Z,11.60
2019-04-01T05:26:21.644Z,10.43
2019-04-01T05:36:26.581Z,9.67
2019-04-01T05:46:31.423Z,7.33
2019-04-01T05:56:36.235Z,7.37
2019-04-01T06:06:40.865Z,8.23
2019-04-01T06:16:45.559Z,7.50
2019-04-01T06:26:51.270Z,7.80
2019-04-01T06:36:56.933Z,11.07
2019-04-01T06:47:01.675Z,8.43
2019-04-01T06:57:06.587Z,7.80
2019-04-01T07:07:18.935Z,4.83
2019-04-01T07:17:17.575Z,6.93
2019-04-01T07:27:22.312Z,8.03
2019-04-01T07:37:27.044Z,5.40
2019-04-01T07:47:31.863Z,6.33
2019-04-01T07:57:36.811Z,4.87
2019-04-01T08:07:42.353Z,4.27
2019-04-01T08:17:46.947Z,4.20
2019-04-01T08:27:51.973Z,4.87
2019-04-01T08:37:56.732Z,5.90
2019-04-01T08:48:01.601Z,5.07
2019-04-01T08:58:06.465Z,4.90
2019-04-01T09:08:11.116Z,4.10
2019-04-01T09:18:15.893Z,4.43
2019-04-01T09:28:20.618Z,6.30
2019-04-01T09:38:25.467Z,3.17
2019-04-01T09:48:30.474Z,5.20
2019-04-01T09:58:35.170Z,4.77
2019-04-01T10:08:42.355Z,2.93
2019-04-01T10:18:46.285Z,3.73
2019-04-01T10:28:51.024Z,2.47
2019-04-01T10:38:55.918Z,3.77
2019-04-01T10:49:00.656Z,2.57
2019-04-01T10:59:05.337Z,4.80
2019-04-01T11:09:10.957Z,1.53
2019-04-01T11:19:15.636Z,1.77
2019-04-01T11:29:20.491Z,3.13
2019-04-01T11:39:25.139Z,1.47
2019-04-01T11:49:30.123Z,4.23
2019-04-01T11:59:35.145Z,1.57
2019-04-01T12:09:40.325Z,2.63
2019-04-01T12:19:45.174Z,1.40
2019-04-01T12:29:50.503Z,2.30
2019-04-01T12:39:55.230Z,2.63
2019-04-01T12:49:59.979Z,1.50
2019-04-01T13:00:05.730Z,1.67
2019-04-01T13:10:10.404Z,2.70
2019-04-01T13:20:15.212Z,1.90
2019-04-01T13:30:23.983Z,1.43
2019-04-01T13:40:27.221Z,3.63
2019-04-01T13:50:32.658Z,3.93
2019-04-01T14:00:37.577Z,4.50
2019-04-01T14:10:42.361Z,3.93
2019-04-01T14:20:48.138Z,1.20
2019-04-01T14:30:52.909Z,2.23
2019-04-01T14:40:58.198Z,3.30
2019-04-01T14:51:02.905Z,1.90
2019-04-01T15:01:07.665Z,3.23
2019-04-01T15:11:15.569Z,2.13
2019-04-01T15:21:21.776Z,1.60
2019-04-01T15:31:26.846Z,1.63
2019-04-01T15:41:31.665Z,2.07
2019-04-01T15:51:36.869Z,6.70
2019-04-01T16:01:41.924Z,1.03
2019-04-01T16:11:47.475Z,1.60
2019-04-01T16:21:53.078Z,2.07
2019-04-01T16:31:57.893Z,2.50
2019-04-01T16:42:02.898Z,2.23
2019-04-01T16:52:07.583Z,2.13
2019-04-01T17:02:18.185Z,6.87
2019-04-01T17:12:18.738Z,4.57
2019-04-01T17:22:23.482Z,2.23
2019-04-01T17:32:28.906Z,7.90
2019-04-01T17:42:33.685Z,2.77
2019-04-01T17:52:38.334Z,2.97
2019-04-01T18:02:43.013Z,3.33
2019-04-01T18:12:47.850Z,5.77
2019-04-01T18:22:52.566Z,4.60
2019-04-01T18:32:57.354Z,7.23
2019-04-01T18:43:02.220Z,10.90
2019-04-01T18:53:07.378Z,6.30
2019-04-01T19:03:12.404Z,7.23
2019-04-01T19:13:18.036Z,6.30
2019-04-01T19:23:22.709Z,11.80
2019-04-01T19:33:27.600Z,6.40
2019-04-01T19:43:32.443Z,7.83
2019-04-01T19:53:37.425Z,7.50
2019-04-01T20:03:43.117Z,6.83
2019-04-01T20:13:47.971Z,7.37
2019-04-01T20:23:54.874Z,5.60
2019-04-01T20:33:58.906Z,11.80
2019-04-01T20:44:03.823Z,7.70
2019-04-01T20:54:08.479Z,8.33
2019-04-01T21:04:13.255Z,8.60
2019-04-01T21:14:17.887Z,8.57
2019-04-01T21:24:23.470Z,13.20
2019-04-01T21:34:28.171Z,12.27
2019-04-01T21:44:35.874Z,10.97
2019-04-01T21:54:40.493Z,11.03
2019-04-01T22:04:45.133Z,13.03
2019-04-01T22:14:49.814Z,17.70
2019-04-01T22:24:54.439Z,14.63
2019-04-01T22:34:59.171Z,17.07
2019-04-01T22:45:03.875Z,23.47
2019-04-01T22:55:08.733Z,18.47
2019-04-01T23:05:13.435Z,20.77
2019-04-01T23:15:18.319Z,21.10
2019-04-01T23:25:22.984Z,21.03
2019-04-01T23:35:27.694Z,19.93
2019-04-01T23:45:32.396Z,19.03
2019-04-01T23:55:37.042Z,20.40
